createdAt,value
2022-12-18T00:02:07.631Z,33.40
2022-12-18T00:04:34.091Z,31.50
2022-12-18T00:07:00.647Z,34.73
2022-12-18T00:09:39.584Z,31.27
2022-12-18T00:14:42.959Z,32.77
2022-12-18T00:17:09.491Z,32.30
2022-12-18T00:19:35.950Z,31.87
2022-12-18T00:22:02.299Z,32.30
2022-12-18T00:24:28.950Z,33.70
2022-12-18T00:26:55.262Z,33.67
2022-12-18T00:29:21.589Z,35.63
2022-12-18T00:31:48.047Z,35.13
2022-12-18T00:34:14.853Z,35.73
2022-12-18T00:36:42.125Z,33.13
2022-12-18T00:39:08.646Z,33.70
2022-12-18T00:41:53.876Z,34.13
2022-12-18T00:44:20.295Z,34.30
2022-12-18T00:46:48.236Z,37.37
2022-12-18T00:49:16.891Z,38.57
2022-12-18T00:51:43.521Z,36.50
2022-12-18T00:54:11.777Z,39.40
2022-12-18T00:56:48.342Z,40.00
2022-12-18T00:59:15.919Z,38.07
2022-12-18T01:01:42.428Z,35.63
2022-12-18T01:04:09.050Z,37.63
2022-12-18T01:06:35.788Z,36.20
2022-12-18T01:09:03.569Z,34.57
2022-12-18T01:11:30.105Z,37.03
2022-12-18T01:13:56.467Z,37.13
2022-12-18T01:16:23.658Z,37.40
2022-12-18T01:18:54.556Z,36.90
2022-12-18T01:21:22.602Z,37.30
2022-12-18T01:23:53.025Z,36.23
2022-12-18T01:26:19.658Z,37.57
2022-12-18T01:28:46.287Z,39.33
2022-12-18T01:31:22.148Z,38.87
2022-12-18T01:33:48.697Z,36.90
2022-12-18T01:36:23.422Z,38.67
2022-12-18T01:38:51.033Z,40.50
2022-12-18T01:41:19.577Z,37.07
2022-12-18T01:43:53.611Z,38.13
2022-12-18T01:46:22.119Z,39.90
2022-12-18T01:48:51.593Z,40.60
2022-12-18T01:51:18.171Z,37.87
2022-12-18T01:53:46.878Z,40.17
2022-12-18T01:56:22.772Z,36.70
2022-12-18T01:59:02.350Z,37.50
2022-12-18T02:01:31.027Z,38.83
2022-12-18T02:04:17.569Z,38.00
2022-12-18T02:06:43.946Z,39.87
2022-12-18T02:09:16.188Z,38.80
2022-12-18T02:11:57.425Z,38.80
2022-12-18T02:14:30.155Z,38.73
2022-12-18T02:17:11.455Z,40.50
2022-12-18T02:19:44.570Z,40.50
2022-12-18T02:22:42.558Z,38.57
2022-12-18T02:25:21.028Z,39.60
2022-12-18T02:27:50.029Z,38.03
2022-12-18T02:30:16.645Z,37.90
2022-12-18T02:32:51.130Z,39.30
2022-12-18T02:35:23.833Z,40.77
2022-12-18T02:37:51.658Z,39.07
2022-12-18T02:40:18.924Z,38.13
2022-12-18T02:42:45.264Z,41.20
2022-12-18T02:45:11.608Z,38.20
2022-12-18T02:47:41.444Z,40.63
2022-12-18T02:50:36.629Z,38.73
2022-12-18T02:53:20.322Z,38.10
2022-12-18T02:56:03.910Z,37.50
2022-12-18T02:59:01.094Z,41.50
2022-12-18T03:01:44.116Z,37.73
2022-12-18T03:04:27.537Z,40.77
2022-12-18T03:07:00.872Z,40.60
2022-12-18T03:09:32.705Z,37.83
2022-12-18T03:12:31.049Z,39.60
2022-12-18T03:15:30.493Z,41.20
2022-12-18T03:18:10.096Z,37.80
2022-12-18T03:20:39.350Z,40.57
2022-12-18T03:23:12.343Z,41.73
2022-12-18T03:25:43.378Z,39.73
2022-12-18T03:28:15.008Z,40.73
2022-12-18T03:30:43.022Z,42.60
2022-12-18T03:33:35.540Z,38.80
2022-12-18T03:36:02.211Z,41.57
2022-12-18T03:38:28.586Z,41.00
2022-12-18T03:41:04.089Z,44.00
2022-12-18T03:43:51.617Z,43.37
2022-12-18T03:46:39.668Z,43.03
2022-12-18T03:49:20.290Z,40.97
2022-12-18T03:51:53.722Z,41.97
2022-12-18T03:54:21.361Z,40.47
2022-12-18T03:57:01.422Z,39.50
2022-12-18T03:59:30.109Z,40.63
2022-12-18T04:01:59.771Z,43.03
2022-12-18T04:04:28.583Z,42.10
2022-12-18T04:06:56.261Z,43.27
2022-12-18T04:09:22.791Z,41.33
2022-12-18T04:11:49.413Z,40.50
2022-12-18T04:14:17.970Z,42.63
2022-12-18T04:16:45.063Z,41.87
2022-12-18T04:19:11.625Z,41.80
2022-12-18T04:21:38.053Z,43.80
2022-12-18T04:24:04.556Z,42.43
2022-12-18T04:26:31.068Z,39.90
2022-12-18T04:28:57.533Z,44.30
2022-12-18T04:31:24.098Z,43.80
2022-12-18T04:33:50.525Z,44.17
2022-12-18T04:36:16.922Z,40.10
2022-12-18T04:38:43.334Z,42.43
2022-12-18T04:41:09.682Z,43.50
2022-12-18T04:43:36.233Z,39.93
2022-12-18T04:46:07.045Z,42.60
2022-12-18T04:48:34.201Z,39.10
2022-12-18T04:51:00.568Z,41.07
2022-12-18T04:53:26.920Z,42.93
2022-12-18T04:56:10.454Z,41.50
2022-12-18T04:58:38.070Z,40.43
2022-12-18T05:01:05.086Z,40.50
2022-12-18T05:03:32.044Z,41.77
2022-12-18T05:05:58.452Z,43.00
2022-12-18T05:08:24.928Z,41.77
2022-12-18T05:11:01.418Z,41.40
2022-12-18T05:13:28.666Z,42.90
2022-12-18T05:15:55.960Z,43.80
2022-12-18T05:18:23.985Z,40.10
2022-12-18T05:20:51.697Z,42.33
2022-12-18T05:23:18.205Z,43.47
2022-12-18T05:25:51.221Z,42.13
2022-12-18T05:28:17.569Z,40.40
2022-12-18T05:30:48.527Z,42.10
2022-12-18T05:33:14.972Z,40.60
2022-12-18T05:35:41.324Z,40.30
2022-12-18T05:38:07.657Z,43.00
2022-12-18T05:40:33.986Z,41.60
2022-12-18T05:43:00.317Z,42.17
2022-12-18T05:45:27.995Z,39.40
2022-12-18T05:47:54.324Z,41.13
2022-12-18T05:50:21.301Z,39.60
2022-12-18T05:52:47.625Z,39.50
2022-12-18T05:55:13.963Z,41.17
2022-12-18T05:57:40.293Z,40.50
2022-12-18T06:00:07.667Z,41.50
2022-12-18T06:02:34.072Z,39.77
2022-12-18T06:05:00.525Z,40.40
2022-12-18T06:07:26.860Z,40.37
2022-12-18T06:09:53.354Z,38.97
2022-12-18T06:12:19.693Z,41.27
2022-12-18T06:14:46.184Z,39.20
2022-12-18T06:17:12.526Z,42.80
2022-12-18T06:19:38.846Z,41.07
2022-12-18T06:22:05.162Z,39.70
2022-12-18T06:24:31.486Z,40.67
2022-12-18T06:26:57.833Z,40.90
2022-12-18T06:29:24.179Z,41.17
2022-12-18T06:31:50.719Z,39.67
2022-12-18T06:34:17.121Z,42.10
2022-12-18T06:36:43.750Z,40.73
2022-12-18T06:39:10.085Z,43.10
2022-12-18T06:41:36.486Z,40.27
2022-12-18T06:44:02.890Z,43.93
2022-12-18T06:46:29.254Z,44.23
2022-12-18T06:48:55.782Z,42.40
2022-12-18T06:51:23.774Z,40.37
2022-12-18T06:53:50.670Z,40.30
2022-12-18T06:56:17.400Z,41.13
2022-12-18T06:58:43.738Z,39.30
2022-12-18T07:01:11.945Z,43.27
2022-12-18T07:03:43.165Z,42.90
2022-12-18T07:06:21.089Z,42.40
2022-12-18T07:08:48.860Z,41.97
2022-12-18T07:11:15.824Z,39.60
2022-12-18T07:13:42.676Z,42.03
2022-12-18T07:16:20.866Z,42.33
2022-12-18T07:18:50.497Z,39.90
2022-12-18T07:21:19.984Z,42.20
2022-12-18T07:23:48.740Z,39.30
2022-12-18T07:26:17.148Z,40.47
2022-12-18T07:28:43.696Z,41.30
2022-12-18T07:31:14.175Z,42.27
2022-12-18T07:33:41.858Z,39.00
2022-12-18T07:36:10.998Z,39.53
2022-12-18T07:38:37.665Z,42.30
2022-12-18T07:41:12.304Z,38.80
2022-12-18T07:43:40.093Z,42.47
2022-12-18T07:46:07.970Z,41.70
2022-12-18T07:48:34.441Z,39.23
2022-12-18T07:51:06.627Z,37.53
2022-12-18T07:53:34.584Z,42.00
2022-12-18T07:56:26.401Z,39.80
2022-12-18T07:58:52.968Z,41.43
2022-12-18T08:01:19.357Z,39.50
2022-12-18T08:03:47.745Z,41.33
2022-12-18T08:06:14.598Z,41.87
2022-12-18T08:08:42.612Z,40.50
2022-12-18T08:11:08.982Z,40.40
2022-12-18T08:13:35.503Z,38.63
2022-12-18T08:16:04.729Z,37.77
2022-12-18T08:18:35.147Z,39.03
2022-12-18T08:21:12.192Z,41.13
2022-12-18T08:23:43.049Z,41.83
2022-12-18T08:26:11.609Z,38.67
2022-12-18T08:28:38.648Z,39.97
2022-12-18T08:31:05.523Z,38.67
2022-12-18T08:33:32.551Z,40.57
2022-12-18T08:35:59.932Z,37.83
2022-12-18T08:38:26.280Z,39.47
2022-12-18T08:41:11.821Z,38.53
2022-12-18T08:43:57.330Z,39.17
2022-12-18T08:46:26.262Z,39.43
2022-12-18T08:48:53.973Z,40.07
2022-12-18T08:51:21.454Z,42.40
2022-12-18T08:53:48.535Z,38.90
2022-12-18T08:56:15.946Z,37.97
2022-12-18T08:58:43.216Z,37.83
2022-12-18T09:01:12.255Z,37.40
2022-12-18T09:03:39.812Z,37.63
2022-12-18T09:06:06.855Z,40.97
2022-12-18T09:08:37.835Z,38.23
2022-12-18T09:11:04.669Z,37.10
2022-12-18T09:13:31.081Z,36.73
2022-12-18T09:15:57.450Z,34.87
2022-12-18T09:18:25.112Z,35.07
2022-12-18T09:20:53.716Z,38.10
2022-12-18T09:23:21.267Z,35.70
2022-12-18T09:25:47.974Z,35.97
2022-12-18T09:28:16.478Z,36.50
2022-12-18T09:30:46.708Z,40.37
2022-12-18T09:33:13.162Z,38.10
2022-12-18T09:35:40.302Z,39.50
2022-12-18T09:38:08.050Z,38.53
2022-12-18T09:40:40.846Z,41.90
2022-12-18T09:43:11.922Z,34.90
2022-12-18T09:45:53.029Z,37.90
2022-12-18T09:48:33.255Z,34.93
2022-12-18T09:51:06.043Z,38.50
2022-12-18T09:53:38.959Z,38.50
2022-12-18T09:56:06.220Z,37.90
2022-12-18T09:58:46.213Z,37.47
2022-12-18T10:01:21.680Z,35.87
2022-12-18T10:03:48.525Z,35.60
2022-12-18T10:06:22.324Z,38.73
2022-12-18T10:09:10.893Z,37.90
2022-12-18T10:11:49.381Z,38.87
2022-12-18T10:14:27.821Z,33.00
2022-12-18T10:17:22.100Z,34.70
2022-12-18T10:20:03.057Z,36.00
2022-12-18T10:22:47.727Z,35.17
2022-12-18T10:25:23.183Z,37.77
2022-12-18T10:28:01.118Z,36.60
2022-12-18T10:30:27.765Z,37.60
2022-12-18T10:32:55.036Z,40.23
2022-12-18T10:35:24.671Z,40.00
2022-12-18T10:38:13.822Z,37.10
2022-12-18T10:41:10.462Z,39.33
2022-12-18T10:43:40.526Z,35.60
2022-12-18T10:46:09.996Z,39.10
2022-12-18T10:48:48.889Z,37.77
2022-12-18T10:51:36.731Z,40.00
2022-12-18T10:54:06.603Z,36.27
2022-12-18T10:56:36.597Z,39.77
2022-12-18T10:59:08.884Z,37.63
2022-12-18T11:01:49.416Z,37.67
2022-12-18T11:04:31.979Z,35.33
2022-12-18T11:07:06.839Z,38.37
2022-12-18T11:09:35.915Z,37.57
2022-12-18T11:12:24.161Z,36.43
2022-12-18T11:14:53.076Z,36.97
2022-12-18T11:17:26.250Z,37.77
2022-12-18T11:19:55.597Z,36.17
2022-12-18T11:22:28.897Z,37.15
2022-12-18T11:25:30.285Z,39.40
2022-12-18T11:28:08.815Z,35.83
2022-12-18T11:30:38.347Z,36.50
2022-12-18T11:33:15.582Z,37.27
2022-12-18T11:35:54.820Z,35.63
2022-12-18T11:38:27.151Z,36.63
2022-12-18T11:41:44.586Z,34.30
2022-12-18T11:44:14.623Z,33.90
2022-12-18T11:46:50.251Z,34.53
2022-12-18T11:49:27.758Z,34.40
2022-12-18T11:52:12.933Z,33.83
2022-12-18T11:54:39.258Z,34.40
2022-12-18T11:57:35.759Z,33.60
2022-12-18T12:00:13.516Z,33.00
2022-12-18T12:03:02.187Z,33.93
2022-12-18T12:05:51.151Z,32.57
2022-12-18T12:08:48.525Z,34.60
2022-12-18T12:11:31.898Z,34.73
2022-12-18T12:14:27.310Z,33.67
2022-12-18T12:17:19.150Z,34.13
2022-12-18T12:20:21.160Z,33.07
2022-12-18T12:22:59.353Z,33.60
2022-12-18T12:25:45.559Z,28.40
2022-12-18T12:28:36.744Z,28.33
2022-12-18T12:31:24.928Z,27.27
2022-12-18T12:34:10.141Z,27.40
2022-12-18T12:37:03.355Z,31.30
2022-12-18T12:39:35.422Z,28.27
2022-12-18T12:42:23.487Z,31.07
2022-12-18T12:44:57.097Z,29.07
2022-12-18T12:47:39.108Z,28.50
2022-12-18T12:50:16.069Z,30.97
2022-12-18T12:52:48.126Z,32.33
2022-12-18T12:55:33.360Z,31.07
2022-12-18T12:58:16.208Z,30.50
2022-12-18T13:00:55.503Z,31.67
2022-12-18T13:03:34.909Z,31.83
2022-12-18T13:06:10.483Z,29.00
2022-12-18T13:08:57.589Z,29.67
2022-12-18T13:12:04.021Z,30.10
2022-12-18T13:14:36.468Z,30.37
2022-12-18T13:17:30.219Z,32.17
2022-12-18T13:20:10.206Z,31.27
2022-12-18T13:22:42.684Z,32.53
2022-12-18T13:25:32.942Z,31.50
2022-12-18T13:28:06.322Z,32.40
2022-12-18T13:30:33.142Z,32.83
2022-12-18T13:33:14.816Z,28.73
2022-12-18T13:35:48.810Z,32.40
2022-12-18T13:38:38.142Z,30.40
2022-12-18T13:41:19.688Z,30.53
2022-12-18T13:43:59.126Z,32.00
2022-12-18T13:46:46.603Z,33.13
2022-12-18T13:49:12.969Z,31.20
2022-12-18T13:51:43.852Z,34.33
2022-12-18T13:54:35.946Z,33.67
2022-12-18T13:57:03.901Z,29.23
2022-12-18T13:59:40.494Z,31.00
2022-12-18T14:02:16.718Z,27.43
2022-12-18T14:04:47.295Z,31.67
2022-12-18T14:07:20.210Z,34.27
2022-12-18T14:09:52.272Z,30.23
2022-12-18T14:12:44.156Z,30.00
2022-12-18T14:15:27.212Z,32.33
2022-12-18T14:17:58.144Z,30.30
2022-12-18T14:20:26.095Z,28.93
2022-12-18T14:22:52.908Z,27.87
2022-12-18T14:25:22.198Z,27.80
2022-12-18T14:28:08.652Z,28.60
2022-12-18T14:30:43.280Z,28.77
2022-12-18T14:33:17.777Z,29.43
2022-12-18T14:36:05.937Z,30.33
2022-12-18T14:38:40.116Z,28.20
2022-12-18T14:41:12.659Z,29.20
2022-12-18T14:43:42.144Z,30.97
2022-12-18T14:46:29.560Z,29.97
2022-12-18T14:48:57.170Z,32.50
2022-12-18T14:51:26.822Z,30.80
2022-12-18T14:54:01.692Z,30.43
2022-12-18T14:56:30.015Z,31.13
2022-12-18T14:59:05.641Z,32.53
2022-12-18T15:01:35.181Z,31.33
2022-12-18T15:04:03.096Z,33.47
2022-12-18T15:06:34.181Z,35.30
2022-12-18T15:09:02.407Z,41.77
2022-12-18T15:11:32.767Z,35.33
2022-12-18T15:14:00.830Z,33.67
2022-12-18T15:16:27.424Z,36.93
2022-12-18T15:18:54.377Z,33.73
2022-12-18T15:21:21.839Z,35.73
2022-12-18T15:23:53.098Z,38.77
2022-12-18T15:26:21.624Z,34.97
2022-12-18T15:28:52.158Z,36.37
2022-12-18T15:31:18.530Z,36.83
2022-12-18T15:34:01.568Z,35.87
2022-12-18T15:36:27.892Z,36.57
2022-12-18T15:39:04.547Z,35.03
2022-12-18T15:41:34.484Z,38.13
2022-12-18T15:44:03.639Z,35.90
2022-12-18T15:46:31.658Z,37.37
2022-12-18T15:49:02.364Z,36.00
2022-12-18T15:51:35.627Z,37.10
2022-12-18T15:54:05.672Z,37.90
2022-12-18T15:56:51.242Z,38.87
2022-12-18T15:59:20.222Z,34.97
2022-12-18T16:01:52.209Z,36.20
2022-12-18T16:04:21.434Z,35.60
2022-12-18T16:07:13.900Z,36.23
2022-12-18T16:09:36.377Z,37.07
2022-12-18T16:12:02.790Z,37.30
2022-12-18T16:14:31.258Z,39.30
2022-12-18T16:17:07.326Z,39.50
2022-12-18T16:19:33.638Z,35.80
2022-12-18T16:22:00.368Z,45.50
2022-12-18T16:24:29.205Z,44.60
2022-12-18T16:26:57.508Z,36.73
2022-12-18T16:29:27.719Z,39.80
2022-12-18T16:31:55.179Z,34.87
2022-12-18T16:34:26.762Z,37.10
2022-12-18T16:37:05.595Z,37.03
2022-12-18T16:39:36.041Z,35.10
2022-12-18T16:42:05.605Z,35.90
2022-12-18T16:44:33.206Z,35.43
2022-12-18T16:47:02.718Z,37.37
2022-12-18T16:49:29.745Z,36.87
2022-12-18T16:51:56.191Z,36.93
2022-12-18T16:54:22.638Z,35.33
2022-12-18T16:56:51.296Z,36.27
2022-12-18T16:59:18.046Z,33.83
2022-12-18T17:01:44.492Z,34.57
2022-12-18T17:04:11.275Z,33.23
2022-12-18T17:06:43.160Z,35.63
2022-12-18T17:09:15.014Z,31.03
2022-12-18T17:11:41.861Z,32.80
2022-12-18T17:14:20.014Z,36.50
2022-12-18T17:16:47.061Z,32.80
2022-12-18T17:19:17.321Z,34.60
2022-12-18T17:21:45.446Z,33.77
2022-12-18T17:24:11.902Z,33.73
2022-12-18T17:26:38.301Z,34.27
2022-12-18T17:29:04.859Z,34.10
2022-12-18T17:31:32.151Z,35.77
2022-12-18T17:33:58.842Z,34.63
2022-12-18T17:36:28.595Z,40.17
2022-12-18T17:38:57.158Z,39.10
2022-12-18T17:41:24.771Z,38.40
2022-12-18T17:43:59.160Z,37.33
2022-12-18T17:46:26.769Z,39.20
2022-12-18T17:48:55.912Z,38.97
2022-12-18T17:51:22.294Z,38.93
2022-12-18T17:53:49.091Z,37.87
2022-12-18T17:56:17.477Z,33.37
2022-12-18T17:58:44.674Z,34.80
2022-12-18T18:01:16.096Z,36.03
2022-12-18T18:03:43.358Z,46.50
2022-12-18T18:08:37.700Z,59.00
2022-12-18T18:11:24.775Z,37.00
2022-12-18T18:14:04.430Z,35.90
2022-12-18T18:16:42.057Z,37.03
2022-12-18T18:19:11.957Z,36.20
2022-12-18T18:21:40.913Z,33.83
2022-12-18T18:24:08.748Z,34.40
2022-12-18T18:26:36.419Z,30.50
2022-12-18T18:29:05.683Z,30.23
2022-12-18T18:31:34.643Z,37.93
2022-12-18T18:34:06.512Z,36.27
2022-12-18T18:36:34.498Z,38.93
2022-12-18T18:39:01.376Z,36.17
2022-12-18T18:41:29.821Z,32.67
2022-12-18T18:43:57.821Z,32.57
2022-12-18T18:46:24.977Z,32.27
2022-12-18T18:48:51.755Z,30.70
2022-12-18T18:51:21.541Z,31.23
2022-12-18T18:53:50.769Z,28.17
2022-12-18T18:59:07.053Z,30.77
2022-12-18T19:01:33.508Z,33.60
2022-12-18T19:04:00.829Z,30.80
2022-12-18T19:06:28.611Z,30.80
2022-12-18T19:08:56.847Z,29.27
2022-12-18T19:11:43.594Z,29.03
2022-12-18T19:14:11.962Z,30.77
2022-12-18T19:16:38.927Z,31.73
2022-12-18T19:19:05.619Z,30.00
2022-12-18T19:21:33.244Z,30.43
2022-12-18T19:24:01.327Z,32.70
2022-12-18T19:26:28.847Z,31.57
2022-12-18T19:29:01.359Z,30.60
2022-12-18T19:31:33.389Z,29.63
2022-12-18T19:34:02.527Z,29.63
2022-12-18T19:36:30.010Z,29.83
2022-12-18T19:38:59.265Z,31.87
2022-12-18T19:41:29.020Z,29.90
2022-12-18T19:43:55.690Z,29.83
2022-12-18T19:46:23.710Z,29.37
2022-12-18T19:48:50.824Z,28.53
2022-12-18T19:51:25.726Z,29.83
2022-12-18T19:53:58.173Z,29.57
2022-12-18T19:56:27.891Z,30.77
2022-12-18T19:58:55.251Z,31.50
2022-12-18T20:01:23.747Z,29.90
2022-12-18T20:03:52.322Z,29.77
2022-12-18T20:06:36.602Z,29.47
2022-12-18T20:09:05.992Z,30.23
2022-12-18T20:11:36.386Z,28.70
2022-12-18T20:14:12.374Z,28.90
2022-12-18T20:16:39.660Z,29.87
2022-12-18T20:19:07.671Z,29.30
2022-12-18T20:21:34.750Z,27.50
2022-12-18T20:24:01.871Z,30.63
2022-12-18T20:26:28.624Z,30.40
2022-12-18T20:28:55.814Z,29.43
2022-12-18T20:31:22.686Z,27.90
2022-12-18T20:33:50.991Z,28.20
2022-12-18T20:36:21.376Z,27.97
2022-12-18T20:38:51.493Z,28.40
2022-12-18T20:41:21.873Z,30.43
2022-12-18T20:43:48.527Z,31.13
2022-12-18T20:46:16.879Z,29.00
2022-12-18T20:48:44.620Z,30.20
2022-12-18T20:51:14.177Z,30.67
2022-12-18T20:53:42.163Z,30.37
2022-12-18T20:56:12.472Z,31.20
2022-12-18T20:58:38.826Z,29.30
2022-12-18T21:01:16.855Z,28.90
2022-12-18T21:03:45.809Z,27.63
2022-12-18T21:06:13.551Z,29.87
2022-12-18T21:08:40.139Z,29.97
2022-12-18T21:11:40.114Z,33.17
2022-12-18T21:14:13.651Z,28.00
2022-12-18T21:16:40.424Z,29.07
2022-12-18T21:19:06.962Z,29.17
2022-12-18T21:21:38.552Z,29.47
2022-12-18T21:24:06.862Z,29.77
2022-12-18T21:26:33.877Z,28.63
2022-12-18T21:29:03.793Z,27.70
2022-12-18T21:31:33.226Z,29.83
2022-12-18T21:34:02.459Z,31.07
2022-12-18T21:36:29.844Z,30.77
2022-12-18T21:38:57.004Z,31.43
2022-12-18T21:41:44.013Z,31.10
2022-12-18T21:44:13.506Z,29.40
2022-12-18T21:46:43.170Z,30.33
2022-12-18T21:49:10.519Z,30.50
2022-12-18T21:51:37.487Z,29.70
2022-12-18T21:54:04.404Z,30.17
2022-12-18T21:56:43.154Z,30.23
2022-12-18T21:59:09.789Z,25.97
2022-12-18T22:01:37.795Z,29.47
2022-12-18T22:04:04.576Z,28.87
2022-12-18T22:06:30.999Z,28.20
2022-12-18T22:08:57.589Z,30.70
2022-12-18T22:11:24.143Z,29.53
2022-12-18T22:13:50.604Z,30.03
2022-12-18T22:16:17.170Z,27.47
2022-12-18T22:18:43.708Z,29.30
2022-12-18T22:21:29.568Z,29.20
2022-12-18T22:24:02.075Z,28.87
2022-12-18T22:26:35.070Z,29.60
2022-12-18T22:29:23.790Z,27.50
2022-12-18T22:31:50.635Z,27.30
2022-12-18T22:34:21.914Z,27.87
2022-12-18T22:36:49.374Z,30.80
2022-12-18T22:39:21.431Z,29.87
2022-12-18T22:41:48.644Z,28.63
2022-12-18T22:44:17.465Z,27.60
2022-12-18T22:46:50.770Z,27.13
2022-12-18T22:49:31.718Z,29.47
2022-12-18T22:51:59.838Z,29.50
2022-12-18T22:54:26.230Z,27.10
2022-12-18T22:56:52.750Z,26.93
2022-12-18T22:59:23.011Z,29.83
2022-12-18T23:01:51.293Z,30.17
2022-12-18T23:04:28.363Z,28.90
2022-12-18T23:07:04.085Z,30.57
2022-12-18T23:09:30.462Z,30.77
2022-12-18T23:11:57.046Z,29.03
2022-12-18T23:14:23.401Z,29.80
2022-12-18T23:16:50.428Z,31.07
2022-12-18T23:19:19.553Z,30.97
2022-12-18T23:21:45.924Z,28.53
2022-12-18T23:24:12.352Z,30.53
2022-12-18T23:26:38.994Z,31.90
2022-12-18T23:29:05.453Z,28.93
2022-12-18T23:31:35.053Z,30.80
2022-12-18T23:34:03.158Z,30.43
2022-12-18T23:36:30.499Z,30.17
2022-12-18T23:39:01.160Z,29.07
2022-12-18T23:41:32.625Z,29.77
2022-12-18T23:44:00.442Z,31.20
2022-12-18T23:46:29.934Z,30.37
2022-12-18T23:48:58.916Z,32.00
2022-12-18T23:51:25.942Z,29.80
2022-12-18T23:53:54.201Z,27.50
2022-12-18T23:56:20.667Z,32.60
2022-12-18T23:58:48.945Z,29.23
